Time;durP1;ratioP1;P1;durP2;ratioP2;P2;SDS_P1;SDS_P2;PMS_P1;PMS_P2;Temp;Humidity;BMP_temperature;BMP_pressure;BME280_temperature;BME280_humidity;BME280_pressure;Samples;Min_cycle;Max_cycle;Signal;HPM_P1;HPM_P2
2022/09/16 00:03:07;;;;;;;5.93;1.60;;;;;;;12.70;71.77;99114.09;30674723;28;96740;-63
2022/09/16 00:18:08;;;;;;;4.97;1.70;;;;;;;12.63;71.42;99116.78;30672611;28;99806;-65
2022/09/16 00:33:09;;;;;;;5.30;1.50;;;;;;;12.53;71.58;99130.56;30694184;28;96717;-63
2022/09/16 00:48:14;;;;;;;4.57;1.60;;;;;;;12.53;71.52;99127.06;30718372;28;97486;-66
2022/09/16 01:03:15;;;;;;;4.73;1.70;;;;;;;12.64;71.47;99138.97;30712676;28;96763;-68
2022/09/16 01:18:47;;;;;;;2.70;1.48;;;;;;;12.75;71.31;99130.28;30675076;28;96978;-70
2022/09/16 01:33:50;;;;;;;4.50;1.40;;;;;;;12.76;70.75;99137.28;30752481;28;96744;-65
2022/09/16 01:49:11;;;;;;;3.63;1.10;;;;;;;12.84;70.65;99139.72;30742238;28;96970;-62
2022/09/16 02:04:20;;;;;;;3.10;1.40;;;;;;;12.78;70.59;99140.56;30734136;28;96862;-63
2022/09/16 02:19:25;;;;;;;4.93;1.40;;;;;;;12.74;70.03;99134.00;30684790;28;97199;-64
2022/09/16 02:34:31;;;;;;;6.00;1.33;;;;;;;12.71;70.10;99139.75;30650998;28;96653;-65
2022/09/16 02:49:48;;;;;;;3.77;1.27;;;;;;;12.61;70.12;99144.72;30681708;28;96814;-66
2022/09/16 03:04:48;;;;;;;1.90;1.00;;;;;;;12.69;70.16;99152.53;30629004;28;96738;-63
2022/09/16 03:20:02;;;;;;;4.80;0.80;;;;;;;12.78;69.76;99161.13;30620739;28;97388;-68
2022/09/16 03:35:16;;;;;;;1.80;0.90;;;;;;;12.62;70.20;99159.75;30617891;28;97977;-68
2022/09/16 03:50:18;;;;;;;3.07;1.20;;;;;;;12.37;71.39;99155.06;30614855;28;96741;-68
2022/09/16 04:05:18;;;;;;;4.40;1.60;;;;;;;12.32;72.00;99152.19;30611829;28;96964;-65
2022/09/16 04:20:19;;;;;;;2.63;1.50;;;;;;;12.33;72.72;99137.81;30654783;28;97352;-68
2022/09/16 04:35:19;;;;;;;3.70;1.63;;;;;;;12.26;73.00;99158.31;30713229;28;110731;-71
2022/09/16 04:50:20;;;;;;;3.28;1.50;;;;;;;12.35;73.41;99159.75;30615531;28;98709;-67
2022/09/16 05:05:20;;;;;;;5.43;1.70;;;;;;;12.59;73.49;99160.13;30627556;28;116732;-63
2022/09/16 05:20:21;;;;;;;4.40;1.63;;;;;;;12.68;73.23;99166.91;30605128;28;109460;-70
2022/09/16 05:35:21;;;;;;;3.83;1.80;;;;;;;12.82;72.91;99162.34;30606892;28;97265;-62
2022/09/16 05:50:21;;;;;;;2.58;1.55;;;;;;;13.18;72.77;99172.50;30723316;28;112525;-67
2022/09/16 06:05:22;;;;;;;3.38;1.38;;;;;;;13.84;72.00;99167.84;30714977;28;97765;-62
2022/09/16 06:20:22;;;;;;;2.10;1.65;;;;;;;14.80;70.53;99162.28;30655208;28;98168;-69
2022/09/16 06:35:22;;;;;;;2.40;1.50;;;;;;;15.73;67.80;99154.06;30619518;28;108898;-69
2022/09/16 06:50:23;;;;;;;4.10;1.92;;;;;;;15.67;65.99;99166.56;30656398;28;98698;-68
2022/09/16 07:05:24;;;;;;;4.35;1.52;;;;;;;16.38;65.43;99165.91;30651741;28;122424;-69
2022/09/16 07:20:24;;;;;;;4.43;1.60;;;;;;;16.49;62.67;99173.13;30645362;28;99099;-62
2022/09/16 07:35:25;;;;;;;3.08;1.33;;;;;;;16.77;62.25;99168.91;30649987;28;106580;-60
2022/09/16 07:50:25;;;;;;;3.63;1.08;;;;;;;17.72;58.17;99171.34;30628982;28;98810;-66
2022/09/16 08:05:25;;;;;;;4.85;1.10;;;;;;;18.31;56.00;99191.75;30644162;28;104111;-63
2022/09/16 08:20:27;;;;;;;4.35;1.08;;;;;;;19.56;52.89;99190.41;30632740;28;98512;-67
2022/09/16 08:35:27;;;;;;;3.97;0.93;;;;;;;20.33;51.37;99179.53;30618473;28;97448;-67
2022/09/16 08:50:32;;;;;;;3.15;0.85;;;;;;;20.60;47.82;99185.66;30606134;28;121869;-63
2022/09/16 09:05:42;;;;;;;4.53;0.90;;;;;;;21.37;43.60;99195.25;30590659;28;97107;-62
2022/09/16 09:20:54;;;;;;;1.67;0.73;;;;;;;21.76;44.07;99194.84;30668098;28;98683;-66
2022/09/16 09:36:22;;;;;;;0.87;0.30;;;;;;;29.94;30.97;99180.28;30721340;28;97271;-64
2022/09/16 09:51:44;;;;;;;1.07;0.67;;;;;;;23.01;35.28;99163.81;30618506;28;98668;-69
2022/09/16 10:06:44;;;;;;;2.63;0.70;;;;;;;31.91;25.93;99164.63;30620002;28;97467;-68
2022/09/16 10:21:52;;;;;;;1.92;0.50;;;;;;;37.38;20.31;99168.34;30616440;28;97216;-70
2022/09/16 10:37:01;;;;;;;1.13;0.33;;;;;;;39.13;15.45;99141.03;30617132;28;97542;-69
2022/09/16 10:52:14;;;;;;;2.83;0.40;;;;;;;43.98;12.51;99147.81;30616460;28;98344;-63
2022/09/16 11:07:14;;;;;;;;;;;;;;;44.10;11.00;99127.59;30613036;28;97808;-69
2022/09/16 11:22:31;;;;;;;2.58;0.40;;;;;;;37.96;14.57;99116.28;30613754;28;96822;-62
2022/09/16 11:37:50;;;;;;;1.73;0.40;;;;;;;37.01;15.12;99107.94;30696644;28;97634;-70
2022/09/16 11:53:15;;;;;;;6.43;0.50;;;;;;;36.54;15.44;99100.88;30657610;28;97656;-73
2022/09/16 12:08:27;;;;;;;1.90;0.50;;;;;;;32.52;18.87;99092.34;30638738;28;98214;-71
2022/09/16 12:23:32;;;;;;;1.93;0.40;;;;;;;34.63;17.71;99094.31;30601703;28;97543;-68
2022/09/16 12:38:33;;;;;;;1.77;0.40;;;;;;;34.87;17.55;99071.97;30693161;28;98058;-65
2022/09/16 12:53:50;;;;;;;1.70;0.47;;;;;;;35.36;16.68;99065.13;30683539;28;97261;-68
2022/09/16 13:08:52;;;;;;;3.63;0.50;;;;;;;28.21;23.88;99052.34;30685756;28;97635;-63
2022/09/16 13:24:21;;;;;;;5.00;0.50;;;;;;;23.93;27.93;99027.31;30682928;28;97558;-65
2022/09/16 13:39:31;;;;;;;1.00;0.43;;;;;;;22.36;30.53;99035.09;30643592;28;97355;-65
2022/09/16 13:54:53;;;;;;;2.43;0.50;;;;;;;22.32;33.21;99063.81;30596926;28;96704;-63
2022/09/16 14:10:08;;;;;;;0.60;0.30;;;;;;;22.07;33.98;99040.31;30597382;28;97121;-64
2022/09/16 14:25:24;;;;;;;1.37;0.40;;;;;;;21.94;34.50;99036.28;30598772;28;96732;-65
2022/09/16 14:40:27;;;;;;;2.07;0.40;;;;;;;21.21;35.16;99032.69;30643373;28;96802;-65
2022/09/16 14:55:30;;;;;;;2.33;0.57;;;;;;;19.79;38.21;99010.97;30680575;28;96749;-64
2022/09/16 15:10:31;;;;;;;2.37;0.70;;;;;;;18.66;40.53;99004.50;30676239;28;96788;-64
2022/09/16 15:25:33;;;;;;;2.13;0.32;;;;;;;18.36;42.65;99030.06;30681187;28;97276;-66
2022/09/16 15:40:34;;;;;;;1.53;0.50;;;;;;;17.41;45.27;99018.16;30680855;28;98656;-63
2022/09/16 15:55:51;;;;;;;5.57;0.87;;;;;;;16.69;47.38;99008.75;30674810;28;96837;-64
2022/09/16 16:11:17;;;;;;;2.30;1.23;;;;;;;15.82;49.45;99015.78;30678142;28;97348;-64
2022/09/16 16:26:17;;;;;;;2.47;0.80;;;;;;;15.32;51.08;99003.59;30665117;28;96748;-64
2022/09/16 16:41:22;;;;;;;1.73;0.80;;;;;;;14.87;52.75;99007.53;30633158;28;107357;-65
2022/09/16 16:56:22;;;;;;;3.80;1.40;;;;;;;14.36;54.72;99022.16;30657341;28;97292;-68
2022/09/16 17:11:24;;;;;;;4.63;2.05;;;;;;;13.77;56.26;99025.22;30687085;28;96830;-62
2022/09/16 17:26:25;;;;;;;4.60;1.50;;;;;;;13.50;57.78;99038.00;30604030;28;97163;-62
2022/09/16 17:41:26;;;;;;;6.07;2.17;;;;;;;13.15;58.97;99033.88;30662470;28;97520;-63
2022/09/16 17:56:26;;;;;;;5.50;3.10;;;;;;;12.86;60.46;99028.09;30653769;28;97028;-65
2022/09/16 18:11:27;;;;;;;4.35;2.20;;;;;;;12.69;61.05;99034.94;30690400;28;97559;-66
2022/09/16 18:26:28;;;;;;;6.72;2.08;;;;;;;12.32;61.24;99040.03;30602783;28;97135;-64
2022/09/16 18:41:34;;;;;;;7.70;4.27;;;;;;;11.96;62.17;99057.31;30641906;28;97465;-65
2022/09/16 18:56:36;;;;;;;32.47;11.63;;;;;;;11.72;63.50;99062.25;30735000;28;97078;-65
2022/09/16 19:11:37;;;;;;;26.83;11.83;;;;;;;11.46;64.05;99063.84;30730589;28;97322;-65
2022/09/16 19:26:39;;;;;;;2.73;1.60;;;;;;;11.33;64.49;99063.84;30731709;28;96710;-65
2022/09/16 19:41:40;;;;;;;4.37;1.33;;;;;;;11.15;64.77;99051.94;30730056;28;97434;-65
2022/09/16 19:56:41;;;;;;;3.40;1.17;;;;;;;11.05;65.68;99053.34;30730609;28;97250;-65
2022/09/16 20:11:43;;;;;;;3.17;1.20;;;;;;;10.79;65.33;99050.38;30728683;28;97366;-65
2022/09/16 20:26:45;;;;;;;4.20;1.30;;;;;;;10.51;65.98;99061.13;30727301;28;96809;-65
2022/09/16 20:41:48;;;;;;;3.77;1.77;;;;;;;10.36;66.62;99068.41;30725697;28;97332;-65
2022/09/16 20:56:49;;;;;;;9.13;5.73;;;;;;;10.11;67.50;99074.19;30722818;28;97646;-65
2022/09/16 21:11:50;;;;;;;5.88;4.05;;;;;;;9.68;67.95;99072.44;30723155;28;97203;-67
2022/09/16 21:26:52;;;;;;;5.10;2.77;;;;;;;9.46;68.96;99069.78;30723058;28;97119;-65
2022/09/16 21:41:52;;;;;;;13.70;10.03;;;;;;;9.41;69.89;99069.53;30729264;28;96635;-65
2022/09/16 21:56:53;;;;;;;8.25;5.82;;;;;;;9.34;70.36;99068.66;30742719;28;97057;-65
2022/09/16 22:11:54;;;;;;;3.45;2.03;;;;;;;9.27;70.10;99065.09;30749620;28;98154;-65
2022/09/16 22:26:54;;;;;;;4.87;2.33;;;;;;;9.09;70.41;99061.03;30749192;28;96589;-65
2022/09/16 22:41:54;;;;;;;5.22;2.17;;;;;;;8.84;71.33;99054.41;30746972;28;114197;-66
2022/09/16 22:56:55;;;;;;;23.98;16.63;;;;;;;8.71;71.89;99042.63;30744497;28;118247;-65
2022/09/16 23:11:55;;;;;;;12.57;9.70;;;;;;;8.80;72.21;99049.50;30703713;28;103330;-65
2022/09/16 23:26:55;;;;;;;3.30;2.25;;;;;;;8.96;71.58;99026.38;30743891;28;102055;-65
2022/09/16 23:41:56;;;;;;;4.70;1.63;;;;;;;8.87;71.56;99027.47;30742690;28;96914;-65
2022/09/16 23:56:56;;;;;;;3.03;1.73;;;;;;;8.60;71.66;99032.50;30740622;28;96968;-65
